Suffolk, VA (23435)

10:48 PM EST on January 22, 2017 (GMT -0500)
MD9173 | | Change Station

Elev 85 ft 36.88 °N, 76.48 °W | Updated 20 minutes ago

Overcast
Overcast
49.0 °F
Feels Like 49 °F
N
0.0
Wind Variable Wind from North
Gusts 0.0 mph

Today
High -- | Low -- °F
--% Chance of Precip.
Yesterday
High -- | Low -- °F
Precip. -- in
Pressure 29.52 in
Visibility 1.2 miles
Clouds Overcast 200 ft
Windchill 49 °F
Dew Point 48 °F
Humidity 98%
Rainfall 0.15 in
Snow Depth Not available.
7:14 AM 5:20 PM
Waning Crescent, 21% visible
METAR KPVG 230335Z 05004KT 1 1/4SM OVC002 10/08 A2952 RMK AO1
Pressure 29.52 in
Visibility 1.2 miles
Clouds Overcast 200 ft
Windchill 49 °F
Dew Point 48 °F
Humidity 98%
Rainfall 0.15 in
Snow Depth Not available.
7:14 AM 5:20 PM
Waning Crescent, 21% visible
METAR KPVG 230335Z 05004KT 1 1/4SM OVC002 10/08 A2952 RMK AO1

Get Your Daily Forecast Email!

Thanks for signing up!

Be on the lookout for a verification email in your inbox.

You'll start receiving the daily forecast at 8 AM.

×

10-Day Weather Forecast

Almanac

Astronomy

Jan. 22, 2017 Rise Set
Actual Time
Civil Twilight
Nautical Twilight
Astronomical Twilight
Moon
Length of Visible Light
Length of Day
Tomorrow will be .
, % of the Moon is Illuminated

Today's Extremes

State Highs State Lows

Community

WunderPhotos

Upload Photos

1,962,540 photos uploaded!

WunderBlog® & News

Nearby

Air Quality

  Air Quality AQ Index Pollutant
Not available.

Snow Depth

Station Depth Elevation

Earthquake Activity

City Distance Mag. Time & Date
Minimum magnitude displayed is 2.5.

Coastal Water Temperatures

Place Temperature

Stations

Nearby Weather Stations

Station Location Temp. Windchill Dew Point Humidity Wind Precip. Elev Updated Type
                   

Watches & Warnings

Marine Fog Advisory, Small Craft Advisory
Issued: 10:02 PM EST Jan. 22, 2017 – National Weather Service

... Dense fog advisory remains in effect until 4 am EST Monday...
... Small Craft Advisory remains in effect from 1 am to 7 am EST
Monday...

* winds... northeast 15 to 20 kt with gusts up to 25 kt.

* Visibility... areas of fog reducing visibility to near zero at
times.

Precautionary/preparedness actions...

A Small Craft Advisory means wind speeds of 20 to 33 knots over
the rivers of eastern Virginia are expected to produce hazardous
boating conditions to small craft. Inexperienced mariners...
especially those operating smaller vessels... should avoid
navigating in these conditions.

Mariners should pay close attention to the marine forecast... and
consider wind and sea conditions in planning.

A dense fog advisory means visibilities will frequently be
reduced to less than one mile. Inexperienced mariners...
especially those operating smaller vessels should avoid
navigating in these conditions.